sensor_id;sensor_type;location;lat;lon;timestamp;pressure;altitude;pressure_sealevel;temperature;humidity
18323;BME280;9287;49.456;11.064;2023-07-20T00:00:47;97834.34;;;18.97;100.00
18323;BME280;9287;49.456;11.064;2023-07-20T00:03:17;97833.59;;;18.93;100.00
18323;BME280;9287;49.456;11.064;2023-07-20T00:05:45;97841.13;;;18.92;100.00
18323;BME280;9287;49.456;11.064;2023-07-20T00:08:14;97844.66;;;18.93;100.00
18323;BME280;9287;49.456;11.064;2023-07-20T00:10:42;97839.09;;;18.96;100.00
18323;BME280;9287;49.456;11.064;2023-07-20T00:13:10;97833.44;;;19.07;100.00
18323;BME280;9287;49.456;11.064;2023-07-20T00:15:40;97835.19;;;18.94;100.00
18323;BME280;9287;49.456;11.064;2023-07-20T00:18:08;97829.72;;;18.87;100.00
18323;BME280;9287;49.456;11.064;2023-07-20T00:20:36;97829.72;;;18.87;100.00
18323;BME280;9287;49.456;11.064;2023-07-20T00:23:03;97832.03;;;18.92;100.00
18323;BME280;9287;49.456;11.064;2023-07-20T00:25:31;97833.69;;;18.86;100.00
18323;BME280;9287;49.456;11.064;2023-07-20T00:28:02;97825.97;;;18.66;100.00
18323;BME280;9287;49.456;11.064;2023-07-20T00:30:30;97826.25;;;18.75;100.00
18323;BME280;9287;49.456;11.064;2023-07-20T00:33:02;97822.63;;;18.86;100.00
18323;BME280;9287;49.456;11.064;2023-07-20T00:35:30;97818.66;;;18.87;100.00
18323;BME280;9287;49.456;11.064;2023-07-20T00:37:57;97801.13;;;18.59;100.00
18323;BME280;9287;49.456;11.064;2023-07-20T00:40:28;97797.22;;;18.53;100.00
18323;BME280;9287;49.456;11.064;2023-07-20T00:42:55;97793.63;;;18.56;100.00
18323;BME280;9287;49.456;11.064;2023-07-20T00:45:24;97802.31;;;18.62;100.00
18323;BME280;9287;49.456;11.064;2023-07-20T00:47:55;97810.56;;;18.65;100.00
18323;BME280;9287;49.456;11.064;2023-07-20T00:50:26;97807.81;;;18.65;100.00
18323;BME280;9287;49.456;11.064;2023-07-20T00:52:55;97817.31;;;18.64;100.00
18323;BME280;9287;49.456;11.064;2023-07-20T00:55:24;97818.91;;;18.55;100.00
18323;BME280;9287;49.456;11.064;2023-07-20T00:57:52;97811.88;;;18.50;100.00
18323;BME280;9287;49.456;11.064;2023-07-20T01:00:20;97819.78;;;18.48;100.00
18323;BME280;9287;49.456;11.064;2023-07-20T01:02:48;97816.25;;;18.44;100.00
18323;BME280;9287;49.456;11.064;2023-07-20T01:05:17;97811.16;;;18.39;100.00
18323;BME280;9287;49.456;11.064;2023-07-20T01:07:52;97820.97;;;18.47;100.00
18323;BME280;9287;49.456;11.064;2023-07-20T01:10:29;97826.06;;;18.52;100.00
18323;BME280;9287;49.456;11.064;2023-07-20T01:13:00;97819.69;;;18.62;100.00
18323;BME280;9287;49.456;11.064;2023-07-20T01:15:29;97808.72;;;18.48;100.00
18323;BME280;9287;49.456;11.064;2023-07-20T01:17:56;97815.75;;;18.56;100.00
18323;BME280;9287;49.456;11.064;2023-07-20T01:20:29;97806.25;;;18.57;100.00
18323;BME280;9287;49.456;11.064;2023-07-20T01:23:19;97812.59;;;18.61;100.00
18323;BME280;9287;49.456;11.064;2023-07-20T01:26:02;97816.56;;;18.53;100.00
18323;BME280;9287;49.456;11.064;2023-07-20T01:28:48;97824.94;;;18.46;100.00
18323;BME280;9287;49.456;11.064;2023-07-20T01:31:24;97819.84;;;18.41;100.00
18323;BME280;9287;49.456;11.064;2023-07-20T01:33:55;97811.53;;;18.41;100.00
18323;BME280;9287;49.456;11.064;2023-07-20T01:36:26;97811.97;;;18.36;100.00
18323;BME280;9287;49.456;11.064;2023-07-20T01:38:56;97810.47;;;18.28;100.00
18323;BME280;9287;49.456;11.064;2023-07-20T01:41:24;97800.09;;;18.39;100.00
18323;BME280;9287;49.456;11.064;2023-07-20T01:43:53;97801.63;;;18.47;100.00
18323;BME280;9287;49.456;11.064;2023-07-20T01:46:21;97800.03;;;18.50;100.00
18323;BME280;9287;49.456;11.064;2023-07-20T01:48:50;97821.34;;;18.49;100.00
18323;BME280;9287;49.456;11.064;2023-07-20T01:51:18;97828.50;;;18.43;100.00
18323;BME280;9287;49.456;11.064;2023-07-20T01:53:46;97828.56;;;18.36;100.00
18323;BME280;9287;49.456;11.064;2023-07-20T01:56:14;97835.78;;;18.23;100.00
18323;BME280;9287;49.456;11.064;2023-07-20T01:58:42;97838.13;;;18.28;100.00
18323;BME280;9287;49.456;11.064;2023-07-20T02:01:09;97845.19;;;18.32;100.00
18323;BME280;9287;49.456;11.064;2023-07-20T02:03:37;97841.19;;;18.37;100.00
18323;BME280;9287;49.456;11.064;2023-07-20T02:06:06;97845.13;;;18.39;100.00
18323;BME280;9287;49.456;11.064;2023-07-20T02:08:39;97846.69;;;18.40;100.00
18323;BME280;9287;49.456;11.064;2023-07-20T02:11:07;97862.50;;;18.40;100.00
18323;BME280;9287;49.456;11.064;2023-07-20T02:13:36;97855.44;;;18.35;100.00
18323;BME280;9287;49.456;11.064;2023-07-20T02:16:04;97853.03;;;18.37;100.00
18323;BME280;9287;49.456;11.064;2023-07-20T02:18:32;97849.13;;;18.35;100.00
18323;BME280;9287;49.456;11.064;2023-07-20T02:21:01;97862.56;;;18.33;100.00
18323;BME280;9287;49.456;11.064;2023-07-20T02:23:31;97867.63;;;18.38;100.00
18323;BME280;9287;49.456;11.064;2023-07-20T02:25:59;97857.69;;;18.51;100.00
18323;BME280;9287;49.456;11.064;2023-07-20T02:28:28;97871.03;;;18.63;100.00
18323;BME280;9287;49.456;11.064;2023-07-20T02:30:55;97867.00;;;18.71;100.00
18323;BME280;9287;49.456;11.064;2023-07-20T02:33:23;97871.38;;;18.69;100.00
18323;BME280;9287;49.456;11.064;2023-07-20T02:35:51;97866.72;;;18.55;100.00
18323;BME280;9287;49.456;11.064;2023-07-20T02:38:19;97860.84;;;18.50;100.00
18323;BME280;9287;49.456;11.064;2023-07-20T02:40:48;97868.81;;;18.40;100.00
18323;BME280;9287;49.456;11.064;2023-07-20T02:43:17;97864.88;;;18.38;100.00
18323;BME280;9287;49.456;11.064;2023-07-20T02:45:45;97865.63;;;18.46;100.00
18323;BME280;9287;49.456;11.064;2023-07-20T02:48:13;97871.88;;;18.53;100.00
18323;BME280;9287;49.456;11.064;2023-07-20T02:50:41;97872.63;;;18.61;100.00
18323;BME280;9287;49.456;11.064;2023-07-20T02:53:09;97873.41;;;18.65;100.00
18323;BME280;9287;49.456;11.064;2023-07-20T02:55:37;97881.28;;;18.66;100.00
18323;BME280;9287;49.456;11.064;2023-07-20T02:58:09;97882.13;;;18.60;100.00
18323;BME280;9287;49.456;11.064;2023-07-20T03:00:37;97890.81;;;18.55;100.00
18323;BME280;9287;49.456;11.064;2023-07-20T03:03:09;97883.75;;;18.50;100.00
18323;BME280;9287;49.456;11.064;2023-07-20T03:05:40;97885.25;;;18.58;100.00
18323;BME280;9287;49.456;11.064;2023-07-20T03:08:08;97881.41;;;18.45;100.00
18323;BME280;9287;49.456;11.064;2023-07-20T03:10:41;97882.66;;;18.37;100.00
18323;BME280;9287;49.456;11.064;2023-07-20T03:13:12;97894.97;;;18.25;100.00
18323;BME280;9287;49.456;11.064;2023-07-20T03:15:40;97891.84;;;18.20;100.00
18323;BME280;9287;49.456;11.064;2023-07-20T03:18:08;97887.09;;;18.24;100.00
18323;BME280;9287;49.456;11.064;2023-07-20T03:20:37;97887.16;;;18.17;100.00
18323;BME280;9287;49.456;11.064;2023-07-20T03:23:06;97886.41;;;18.05;100.00
18323;BME280;9287;49.456;11.064;2023-07-20T03:25:36;97889.66;;;17.97;100.00
18323;BME280;9287;49.456;11.064;2023-07-20T03:28:04;97897.53;;;17.98;100.00
18323;BME280;9287;49.456;11.064;2023-07-20T03:30:34;97899.84;;;18.07;100.00
18323;BME280;9287;49.456;11.064;2023-07-20T03:33:02;97909.31;;;18.06;100.00
18323;BME280;9287;49.456;11.064;2023-07-20T03:35:30;97914.06;;;18.05;100.00
18323;BME280;9287;49.456;11.064;2023-07-20T03:37:58;97907.72;;;18.12;100.00
18323;BME280;9287;49.456;11.064;2023-07-20T03:40:26;97921.13;;;18.14;100.00
18323;BME280;9287;49.456;11.064;2023-07-20T03:42:54;97925.16;;;17.98;100.00
18323;BME280;9287;49.456;11.064;2023-07-20T03:45:21;97914.91;;;17.99;100.00
18323;BME280;9287;49.456;11.064;2023-07-20T03:47:51;97911.72;;;18.00;100.00
18323;BME280;9287;49.456;11.064;2023-07-20T03:50:19;97918.81;;;18.01;100.00
18323;BME280;9287;49.456;11.064;2023-07-20T03:52:47;97922.31;;;18.13;100.00
18323;BME280;9287;49.456;11.064;2023-07-20T03:55:15;97923.50;;;18.08;100.00
18323;BME280;9287;49.456;11.064;2023-07-20T03:57:43;97930.59;;;18.13;100.00
18323;BME280;9287;49.456;11.064;2023-07-20T04:00:12;97923.44;;;18.22;100.00
18323;BME280;9287;49.456;11.064;2023-07-20T04:02:41;97921.03;;;18.28;100.00
18323;BME280;9287;49.456;11.064;2023-07-20T04:05:16;97930.47;;;18.34;100.00
18323;BME280;9287;49.456;11.064;2023-07-20T04:07:49;97918.56;;;18.44;100.00
18323;BME280;9287;49.456;11.064;2023-07-20T04:10:22;97928.38;;;18.52;100.00
18323;BME280;9287;49.456;11.064;2023-07-20T04:12:57;97933.59;;;18.36;100.00
18323;BME280;9287;49.456;11.064;2023-07-20T04:15:25;97931.56;;;18.47;100.00
18323;BME280;9287;49.456;11.064;2023-07-20T04:17:53;97932.69;;;18.53;100.00
18323;BME280;9287;49.456;11.064;2023-07-20T04:20:24;97939.38;;;18.63;100.00
18323;BME280;9287;49.456;11.064;2023-07-20T04:22:52;97937.31;;;18.70;100.00
18323;BME280;9287;49.456;11.064;2023-07-20T04:25:20;97947.69;;;18.59;100.00
18323;BME280;9287;49.456;11.064;2023-07-20T04:27:51;97946.09;;;18.58;100.00
18323;BME280;9287;49.456;11.064;2023-07-20T04:30:21;97950.06;;;18.57;100.00
18323;BME280;9287;49.456;11.064;2023-07-20T04:32:50;97950.84;;;18.54;100.00
18323;BME280;9287;49.456;11.064;2023-07-20T04:35:25;97954.53;;;18.37;100.00
18323;BME280;9287;49.456;11.064;2023-07-20T04:38:08;97946.19;;;18.44;100.00
18323;BME280;9287;49.456;11.064;2023-07-20T04:40:36;97951.69;;;18.51;100.00
18323;BME280;9287;49.456;11.064;2023-07-20T04:43:12;97956.59;;;18.85;100.00
18323;BME280;9287;49.456;11.064;2023-07-20T04:45:40;97954.31;;;18.72;100.00
18323;BME280;9287;49.456;11.064;2023-07-20T04:48:10;97951.63;;;18.65;100.00
18323;BME280;9287;49.456;11.064;2023-07-20T04:50:40;97955.88;;;18.73;100.00
18323;BME280;9287;49.456;11.064;2023-07-20T04:53:11;97960.28;;;18.67;100.00
18323;BME280;9287;49.456;11.064;2023-07-20T04:55:40;97957.78;;;18.84;100.00
18323;BME280;9287;49.456;11.064;2023-07-20T04:58:08;97959.31;;;18.88;100.00
18323;BME280;9287;49.456;11.064;2023-07-20T05:00:38;97971.25;;;18.82;100.00
18323;BME280;9287;49.456;11.064;2023-07-20T05:03:08;97968.97;;;18.69;100.00
18323;BME280;9287;49.456;11.064;2023-07-20T05:05:40;97965.72;;;18.82;100.00
18323;BME280;9287;49.456;11.064;2023-07-20T05:08:08;97955.41;;;18.86;100.00
18323;BME280;9287;49.456;11.064;2023-07-20T05:10:41;97973.50;;;18.94;100.00
18323;BME280;9287;49.456;11.064;2023-07-20T05:13:12;97963.06;;;19.16;100.00
18323;BME280;9287;49.456;11.064;2023-07-20T05:15:40;97971.88;;;19.00;100.00
18323;BME280;9287;49.456;11.064;2023-07-20T05:18:09;97971.09;;;18.99;100.00
18323;BME280;9287;49.456;11.064;2023-07-20T05:20:37;97975.84;;;18.99;100.00
18323;BME280;9287;49.456;11.064;2023-07-20T05:23:06;97972.97;;;18.54;100.00
18323;BME280;9287;49.456;11.064;2023-07-20T05:25:35;97974.41;;;18.80;100.00
18323;BME280;9287;49.456;11.064;2023-07-20T05:28:06;97972.44;;;18.81;100.00
18323;BME280;9287;49.456;11.064;2023-07-20T05:30:34;97974.47;;;18.73;100.00
18323;BME280;9287;49.456;11.064;2023-07-20T05:33:02;97977.53;;;18.86;100.00
18323;BME280;9287;49.456;11.064;2023-07-20T05:35:30;97981.88;;;18.87;100.00
18323;BME280;9287;49.456;11.064;2023-07-20T05:37:58;97972.09;;;18.71;100.00
18323;BME280;9287;49.456;11.064;2023-07-20T05:40:26;97973.63;;;18.80;100.00
18323;BME280;9287;49.456;11.064;2023-07-20T05:42:53;97976.84;;;18.71;100.00
18323;BME280;9287;49.456;11.064;2023-07-20T05:45:24;97982.72;;;18.76;100.00
18323;BME280;9287;49.456;11.064;2023-07-20T05:47:52;97978.19;;;19.04;100.00
18323;BME280;9287;49.456;11.064;2023-07-20T05:50:21;97976.97;;;19.05;100.00
18323;BME280;9287;49.456;11.064;2023-07-20T05:52:48;97982.97;;;19.00;100.00
18323;BME280;9287;49.456;11.064;2023-07-20T05:55:17;97977.91;;;19.32;100.00
18323;BME280;9287;49.456;11.064;2023-07-20T05:57:45;97982.13;;;19.47;100.00
18323;BME280;9287;49.456;11.064;2023-07-20T06:00:14;97978.75;;;19.26;100.00
18323;BME280;9287;49.456;11.064;2023-07-20T06:02:47;97982.25;;;19.33;100.00
18323;BME280;9287;49.456;11.064;2023-07-20T06:05:15;97983.31;;;19.50;100.00
18323;BME280;9287;49.456;11.064;2023-07-20T06:07:42;97973.69;;;19.62;100.00
18323;BME280;9287;49.456;11.064;2023-07-20T06:10:10;97978.81;;;19.97;100.00
18323;BME280;9287;49.456;11.064;2023-07-20T06:12:38;97989.72;;;20.11;100.00
18323;BME280;9287;49.456;11.064;2023-07-20T06:15:24;97988.25;;;20.03;100.00
18323;BME280;9287;49.456;11.064;2023-07-20T06:17:55;97991.97;;;19.90;100.00
18323;BME280;9287;49.456;11.064;2023-07-20T06:20:25;97988.44;;;19.89;100.00
18323;BME280;9287;49.456;11.064;2023-07-20T06:22:52;97995.44;;;19.97;100.00
18323;BME280;9287;49.456;11.064;2023-07-20T06:25:21;97996.94;;;20.05;100.00
18323;BME280;9287;49.456;11.064;2023-07-20T06:27:49;97995.53;;;19.90;100.00
18323;BME280;9287;49.456;11.064;2023-07-20T06:30:18;97985.47;;;20.03;100.00
18323;BME280;9287;49.456;11.064;2023-07-20T06:32:46;97984.91;;;20.15;100.00
18323;BME280;9287;49.456;11.064;2023-07-20T06:35:15;97986.63;;;20.06;100.00
18323;BME280;9287;49.456;11.064;2023-07-20T06:37:44;97991.28;;;20.12;100.00
18323;BME280;9287;49.456;11.064;2023-07-20T06:40:12;97991.25;;;20.16;100.00
18323;BME280;9287;49.456;11.064;2023-07-20T06:42:43;97992.59;;;20.04;100.00
18323;BME280;9287;49.456;11.064;2023-07-20T06:45:14;97992.41;;;20.49;100.00
18323;BME280;9287;49.456;11.064;2023-07-20T06:47:42;97979.00;;;20.44;100.00
18323;BME280;9287;49.456;11.064;2023-07-20T06:50:10;97989.19;;;20.54;100.00
18323;BME280;9287;49.456;11.064;2023-07-20T06:52:44;97991.16;;;20.54;100.00
18323;BME280;9287;49.456;11.064;2023-07-20T06:55:14;97994.28;;;20.82;100.00
18323;BME280;9287;49.456;11.064;2023-07-20T06:57:49;97989.00;;;20.65;100.00
18323;BME280;9287;49.456;11.064;2023-07-20T07:00:18;97992.31;;;20.83;100.00
18323;BME280;9287;49.456;11.064;2023-07-20T07:02:46;97990.22;;;20.91;100.00
18323;BME280;9287;49.456;11.064;2023-07-20T07:05:17;97992.00;;;20.77;100.00
18323;BME280;9287;49.456;11.064;2023-07-20T07:07:48;97979.78;;;20.98;100.00
18323;BME280;9287;49.456;11.064;2023-07-20T07:10:16;97975.00;;;20.99;100.00
18323;BME280;9287;49.456;11.064;2023-07-20T07:12:45;97985.97;;;20.82;100.00
18323;BME280;9287;49.456;11.064;2023-07-20T07:15:12;97976.91;;;20.78;100.00
18323;BME280;9287;49.456;11.064;2023-07-20T07:17:41;97979.06;;;20.94;100.00
18323;BME280;9287;49.456;11.064;2023-07-20T07:20:10;97984.28;;;20.89;100.00
18323;BME280;9287;49.456;11.064;2023-07-20T07:22:50;97978.41;;;21.10;97.00
18323;BME280;9287;49.456;11.064;2023-07-20T07:25:18;97980.41;;;21.96;84.42
18323;BME280;9287;49.456;11.064;2023-07-20T07:27:49;97977.13;;;23.09;78.29
18323;BME280;9287;49.456;11.064;2023-07-20T07:30:18;97985.44;;;25.42;63.17
18323;BME280;9287;49.456;11.064;2023-07-20T07:32:46;97982.16;;;26.13;54.02
18323;BME280;9287;49.456;11.064;2023-07-20T07:35:14;97981.97;;;27.58;47.35
18323;BME280;9287;49.456;11.064;2023-07-20T07:37:42;97989.66;;;27.09;47.15
18323;BME280;9287;49.456;11.064;2023-07-20T07:40:31;97981.31;;;27.36;47.77
18323;BME280;9287;49.456;11.064;2023-07-20T07:42:59;97982.31;;;29.08;41.90
18323;BME280;9287;49.456;11.064;2023-07-20T07:45:27;97980.34;;;29.24;41.08
18323;BME280;9287;49.456;11.064;2023-07-20T07:47:55;97982.47;;;30.15;39.35
18323;BME280;9287;49.456;11.064;2023-07-20T07:50:23;97984.13;;;31.30;37.73
18323;BME280;9287;49.456;11.064;2023-07-20T07:52:51;97988.41;;;31.26;35.67
18323;BME280;9287;49.456;11.064;2023-07-20T07:55:18;97993.75;;;28.54;40.22
18323;BME280;9287;49.456;11.064;2023-07-20T07:57:48;97994.25;;;26.10;46.26
18323;BME280;9287;49.456;11.064;2023-07-20T08:00:17;97988.63;;;25.19;51.84
18323;BME280;9287;49.456;11.064;2023-07-20T08:02:46;97993.91;;;24.91;54.70
18323;BME280;9287;49.456;11.064;2023-07-20T08:05:15;97984.06;;;25.59;50.75
18323;BME280;9287;49.456;11.064;2023-07-20T08:07:43;97984.72;;;28.40;42.48
18323;BME280;9287;49.456;11.064;2023-07-20T08:10:12;97989.09;;;30.71;37.33
18323;BME280;9287;49.456;11.064;2023-07-20T08:12:40;97985.63;;;28.56;38.36
18323;BME280;9287;49.456;11.064;2023-07-20T08:15:11;97994.28;;;28.25;39.47
18323;BME280;9287;49.456;11.064;2023-07-20T08:17:40;97984.25;;;29.50;38.00
18323;BME280;9287;49.456;11.064;2023-07-20T08:20:09;97984.06;;;30.60;36.03
18323;BME280;9287;49.456;11.064;2023-07-20T08:22:38;97981.25;;;29.77;36.63
18323;BME280;9287;49.456;11.064;2023-07-20T08:25:07;97980.38;;;30.25;37.41
18323;BME280;9287;49.456;11.064;2023-07-20T08:27:36;97988.34;;;28.83;38.22
18323;BME280;9287;49.456;11.064;2023-07-20T08:30:05;97987.59;;;27.95;40.19
18323;BME280;9287;49.456;11.064;2023-07-20T08:32:35;97969.63;;;29.13;37.79
18323;BME280;9287;49.456;11.064;2023-07-20T08:35:05;97982.94;;;29.60;36.51
18323;BME280;9287;49.456;11.064;2023-07-20T08:37:33;97977.84;;;30.41;35.10
18323;BME280;9287;49.456;11.064;2023-07-20T08:40:01;97982.63;;;31.55;33.74
18323;BME280;9287;49.456;11.064;2023-07-20T08:42:30;97994.81;;;31.81;33.52
18323;BME280;9287;49.456;11.064;2023-07-20T08:44:59;97987.41;;;32.62;30.53
18323;BME280;9287;49.456;11.064;2023-07-20T08:47:28;97989.16;;;32.85;30.46
18323;BME280;9287;49.456;11.064;2023-07-20T08:49:57;97983.97;;;32.78;31.05
18323;BME280;9287;49.456;11.064;2023-07-20T08:52:27;97976.06;;;33.78;29.71
18323;BME280;9287;49.456;11.064;2023-07-20T08:54:55;97971.81;;;34.11;28.90
18323;BME280;9287;49.456;11.064;2023-07-20T08:57:23;97978.94;;;32.62;29.99
18323;BME280;9287;49.456;11.064;2023-07-20T08:59:52;97982.34;;;33.03;29.12
18323;BME280;9287;49.456;11.064;2023-07-20T09:02:24;97984.28;;;33.23;29.17
18323;BME280;9287;49.456;11.064;2023-07-20T09:04:54;97983.31;;;32.11;30.82
18323;BME280;9287;49.456;11.064;2023-07-20T09:07:23;97991.19;;;32.79;29.95
18323;BME280;9287;49.456;11.064;2023-07-20T09:09:52;97981.13;;;32.46;29.96
18323;BME280;9287;49.456;11.064;2023-07-20T09:12:23;97974.44;;;31.37;30.64
18323;BME280;9287;49.456;11.064;2023-07-20T09:14:51;97985.16;;;29.56;32.97
18323;BME280;9287;49.456;11.064;2023-07-20T09:17:19;97982.50;;;30.44;32.11
18323;BME280;9287;49.456;11.064;2023-07-20T09:19:48;97974.91;;;30.51;32.17
18323;BME280;9287;49.456;11.064;2023-07-20T09:22:16;97979.72;;;28.96;34.12
18323;BME280;9287;49.456;11.064;2023-07-20T09:24:46;97975.59;;;28.73;35.01
18323;BME280;9287;49.456;11.064;2023-07-20T09:27:14;97976.47;;;30.81;33.02
18323;BME280;9287;49.456;11.064;2023-07-20T09:29:51;97978.34;;;32.26;30.12
18323;BME280;9287;49.456;11.064;2023-07-20T09:32:20;97973.41;;;32.21;29.69
18323;BME280;9287;49.456;11.064;2023-07-20T09:34:51;97984.00;;;32.26;30.33
18323;BME280;9287;49.456;11.064;2023-07-20T09:37:20;97976.69;;;33.03;28.66
18323;BME280;9287;49.456;11.064;2023-07-20T09:39:52;97972.78;;;31.45;29.38
18323;BME280;9287;49.456;11.064;2023-07-20T09:42:23;97984.72;;;30.11;30.59
18323;BME280;9287;49.456;11.064;2023-07-20T09:44:55;97977.03;;;29.58;32.29
18323;BME280;9287;49.456;11.064;2023-07-20T09:47:24;97971.19;;;29.38;31.95
18323;BME280;9287;49.456;11.064;2023-07-20T09:49:58;97985.59;;;29.40;32.92
18323;BME280;9287;49.456;11.064;2023-07-20T09:52:30;97975.03;;;27.23;35.14
18323;BME280;9287;49.456;11.064;2023-07-20T09:55:05;97975.88;;;26.83;36.55
18323;BME280;9287;49.456;11.064;2023-07-20T09:57:33;97980.41;;;28.12;34.71
18323;BME280;9287;49.456;11.064;2023-07-20T10:00:04;97967.97;;;29.54;32.93
18323;BME280;9287;49.456;11.064;2023-07-20T10:02:42;97963.19;;;29.84;32.64
18323;BME280;9287;49.456;11.064;2023-07-20T10:05:12;97968.53;;;28.35;31.90
18323;BME280;9287;49.456;11.064;2023-07-20T10:07:44;97975.81;;;27.23;33.70
18323;BME280;9287;49.456;11.064;2023-07-20T10:10:16;97963.09;;;27.31;33.36
18323;BME280;9287;49.456;11.064;2023-07-20T10:12:46;97962.94;;;28.08;33.15
18323;BME280;9287;49.456;11.064;2023-07-20T10:15:19;97959.53;;;28.64;32.46
18323;BME280;9287;49.456;11.064;2023-07-20T10:17:55;97951.31;;;29.18;32.25
18323;BME280;9287;49.456;11.064;2023-07-20T10:20:26;97964.00;;;28.29;33.77
18323;BME280;9287;49.456;11.064;2023-07-20T10:22:56;97955.31;;;28.60;32.84
18323;BME280;9287;49.456;11.064;2023-07-20T10:25:26;97953.09;;;28.82;32.78
18323;BME280;9287;49.456;11.064;2023-07-20T10:27:55;97960.34;;;28.98;32.66
18323;BME280;9287;49.456;11.064;2023-07-20T10:30:25;97949.25;;;28.94;32.37
18323;BME280;9287;49.456;11.064;2023-07-20T10:32:53;97948.06;;;28.86;33.23
18323;BME280;9287;49.456;11.064;2023-07-20T10:35:22;97945.78;;;27.24;34.24
18323;BME280;9287;49.456;11.064;2023-07-20T10:37:51;97951.06;;;27.22;35.12
18323;BME280;9287;49.456;11.064;2023-07-20T10:40:39;97943.22;;;26.27;35.87
18323;BME280;9287;49.456;11.064;2023-07-20T10:43:09;97946.81;;;26.06;36.51
18323;BME280;9287;49.456;11.064;2023-07-20T10:45:42;97948.13;;;26.76;35.91
18323;BME280;9287;49.456;11.064;2023-07-20T10:48:14;97951.00;;;26.94;34.20
18323;BME280;9287;49.456;11.064;2023-07-20T10:50:43;97936.47;;;27.72;34.00
18323;BME280;9287;49.456;11.064;2023-07-20T10:53:13;97936.16;;;27.61;33.72
18323;BME280;9287;49.456;11.064;2023-07-20T10:55:43;97936.81;;;27.65;33.82
18323;BME280;9287;49.456;11.064;2023-07-20T10:58:13;97933.03;;;27.78;34.42
18323;BME280;9287;49.456;11.064;2023-07-20T11:00:56;97935.84;;;27.87;33.13
18323;BME280;9287;49.456;11.064;2023-07-20T11:03:29;97929.38;;;28.74;33.10
18323;BME280;9287;49.456;11.064;2023-07-20T11:06:30;97925.84;;;28.97;32.16
18323;BME280;9287;49.456;11.064;2023-07-20T11:09:05;97917.69;;;28.66;30.50
18323;BME280;9287;49.456;11.064;2023-07-20T11:11:37;97925.22;;;28.00;31.93
18323;BME280;9287;49.456;11.064;2023-07-20T11:14:07;97917.44;;;27.13;33.98
18323;BME280;9287;49.456;11.064;2023-07-20T11:16:40;97909.94;;;27.19;32.64
18323;BME280;9287;49.456;11.064;2023-07-20T11:19:14;97904.69;;;27.30;32.50
18323;BME280;9287;49.456;11.064;2023-07-20T11:22:04;97909.22;;;26.78;32.25
18323;BME280;9287;49.456;11.064;2023-07-20T11:24:34;97908.31;;;26.90;32.58
18323;BME280;9287;49.456;11.064;2023-07-20T11:27:06;97900.97;;;27.60;32.00
18323;BME280;9287;49.456;11.064;2023-07-20T11:29:34;97894.66;;;27.93;31.05
18323;BME280;9287;49.456;11.064;2023-07-20T11:32:03;97900.63;;;27.31;32.60
18323;BME280;9287;49.456;11.064;2023-07-20T11:34:38;97907.66;;;26.77;33.56
18323;BME280;9287;49.456;11.064;2023-07-20T11:37:06;97905.91;;;27.38;33.40
18323;BME280;9287;49.456;11.064;2023-07-20T11:39:37;97902.16;;;26.95;33.19
18323;BME280;9287;49.456;11.064;2023-07-20T11:42:08;97905.25;;;27.07;33.54
18323;BME280;9287;49.456;11.064;2023-07-20T11:44:36;97902.47;;;27.07;32.70
18323;BME280;9287;49.456;11.064;2023-07-20T11:47:08;97895.66;;;27.35;32.50
18323;BME280;9287;49.456;11.064;2023-07-20T11:49:37;97900.78;;;27.73;32.73
18323;BME280;9287;49.456;11.064;2023-07-20T11:52:06;97894.22;;;27.12;32.80
18323;BME280;9287;49.456;11.064;2023-07-20T11:54:35;97896.59;;;27.50;32.52
18323;BME280;9287;49.456;11.064;2023-07-20T11:57:04;97895.03;;;27.86;30.88
18323;BME280;9287;49.456;11.064;2023-07-20T11:59:34;97888.78;;;27.72;31.34
18323;BME280;9287;49.456;11.064;2023-07-20T12:02:02;97894.38;;;27.27;30.24
18323;BME280;9287;49.456;11.064;2023-07-20T12:04:31;97869.78;;;27.49;29.58
18323;BME280;9287;49.456;11.064;2023-07-20T12:06:59;97870.09;;;27.42;29.62
18323;BME280;9287;49.456;11.064;2023-07-20T12:09:28;97875.22;;;26.49;29.50
18323;BME280;9287;49.456;11.064;2023-07-20T12:12:16;97868.75;;;25.99;30.72
18323;BME280;9287;49.456;11.064;2023-07-20T12:14:45;97867.22;;;26.78;30.91
18323;BME280;9287;49.456;11.064;2023-07-20T12:17:13;97868.19;;;27.02;30.78
18323;BME280;9287;49.456;11.064;2023-07-20T12:19:42;97859.19;;;27.26;29.96
18323;BME280;9287;49.456;11.064;2023-07-20T12:22:10;97861.69;;;27.42;29.65
18323;BME280;9287;49.456;11.064;2023-07-20T12:24:38;97853.53;;;26.89;29.48
18323;BME280;9287;49.456;11.064;2023-07-20T12:27:07;97854.00;;;26.88;28.73
18323;BME280;9287;49.456;11.064;2023-07-20T12:29:35;97856.06;;;27.06;29.19
18323;BME280;9287;49.456;11.064;2023-07-20T12:32:06;97858.56;;;27.22;28.13
18323;BME280;9287;49.456;11.064;2023-07-20T12:34:34;97850.16;;;27.13;27.69
18323;BME280;9287;49.456;11.064;2023-07-20T12:37:03;97849.63;;;26.87;28.83
18323;BME280;9287;49.456;11.064;2023-07-20T12:39:31;97851.31;;;26.66;29.90
18323;BME280;9287;49.456;11.064;2023-07-20T12:41:59;97853.22;;;26.78;29.86
18323;BME280;9287;49.456;11.064;2023-07-20T12:44:29;97851.66;;;26.77;29.77
18323;BME280;9287;49.456;11.064;2023-07-20T12:46:58;97844.81;;;26.87;29.84
18323;BME280;9287;49.456;11.064;2023-07-20T12:49:28;97845.13;;;26.80;30.44
18323;BME280;9287;49.456;11.064;2023-07-20T12:51:55;97836.09;;;26.76;30.78
18323;BME280;9287;49.456;11.064;2023-07-20T12:54:23;97836.91;;;27.04;31.08
18323;BME280;9287;49.456;11.064;2023-07-20T12:56:51;97836.41;;;26.87;30.22
18323;BME280;9287;49.456;11.064;2023-07-20T12:59:22;97836.97;;;26.46;30.74
18323;BME280;9287;49.456;11.064;2023-07-20T13:01:50;97832.31;;;26.61;30.99
18323;BME280;9287;49.456;11.064;2023-07-20T13:04:18;97818.28;;;26.43;30.28
18323;BME280;9287;49.456;11.064;2023-07-20T13:06:47;97836.22;;;26.23;32.42
18323;BME280;9287;49.456;11.064;2023-07-20T13:09:15;97824.06;;;26.48;33.50